Tiempo atmosférico en la estación meteorológica de Teruel, Santa Eulalia del Campo, Teruel (1000 m.)



Fecha
DESCASC
Temp. máxima en grados centígrados (hora)
DESCASC
Temp. mínima en grados centígrados (hora)
DESCASC
Temp. media en grados centígrados
DESCASC
Racha de viento máxima en m/sg (hora)
DESCASC
Velocidad máxima media en intervalos de 10 minutos(hora)
DESCASC
Precipitaciones diarias en mm
DESCASC
Precipitaciones de 00:00 a 06:00 en mm
DESCASC
Precipitaciones de 06:00 a 12:00 en mm
DESCASC
Precipitaciones de 12:00 a 18:00 en mm
DESCASC
Precipitaciones de 18:00 a 24:00 en mm
DESCASC

Gráficas

Temp. máximas Temp. mínimas Temp. medias Precipitaciones Rachas de viento máximas Velocidades máximas media en intervalos de 10 minutos

Datos horarios

Fecha y hora oficial Temperatura (ºC) Velocidad del viento (km/h) Dirección del viento Racha (km/h) Dirección de racha Precipitación (mm) Presión (hPa) Tendencia (hPa) Humedad (%)
2019-04-23 23:00:00 6.1 15 Sudoeste 23 Sudoeste 0 -- -- 65
2019-04-23 22:00:00 5.5 12 Sudeste 21 Sudeste 0 -- -- 71
2019-04-23 21:00:00 5.9 5 Sudeste 43 Oeste 0 -- -- 68
2019-04-23 20:00:00 8.6 17 Oeste 46 Oeste 0 -- -- 60
2019-04-23 19:00:00 8.6 17 Sudoeste 43 Oeste 0.2 -- -- 68
2019-04-23 18:00:00 8.7 20 Sudoeste 34 Sudoeste 0.2 -- -- 75
2019-04-23 17:00:00 9.5 6 Sudoeste 36 Sudoeste 0 -- -- 69
2019-04-23 16:00:00 11.2 19 Sudoeste 37 Sudoeste 0 -- -- 60
2019-04-23 15:00:00 9.5 24 Oeste 44 Oeste 0 -- -- 66
2019-04-23 14:00:00 12.1 19 Sudoeste 33 Sudoeste 0 -- -- 64
2019-04-23 13:00:00 11.9 17 Sur 32 Sur 0 -- -- 63
2019-04-23 12:00:00 11.2 17 Sudoeste 31 Sur 0 -- -- 69
2019-04-23 11:00:00 9.9 14 Sur 21 Sur 0 -- -- 80
2019-04-23 10:00:00 8.9 11 Sur 17 Sur 0 -- -- 86
2019-04-23 09:00:00 7.5 5 Sur 13 Sur 0 -- -- 92
2019-04-23 08:00:00 7.1 8 Sudoeste 16 Sudoeste 0 -- -- 90
2019-04-23 07:00:00 6.6 8 Sur 14 Sudoeste 0 -- -- 91
2019-04-23 06:00:00 6.5 3 Sudoeste 18 Sur 0 -- -- 93
2019-04-23 05:00:00 7.9 9 Sur 17 Sur 0 -- -- 89
2019-04-23 04:00:00 8.4 6 Sudeste 11 Sudeste 0 -- -- 83
2019-04-23 03:00:00 8.4 5 Oeste 19 Oeste 0 -- -- 80
2019-04-23 02:00:00 7.9 2 Sudoeste 9 Sur 0 -- -- 82
2019-04-23 01:00:00 7.8 3 Sur 10 Sudoeste 0 -- -- 92
2019-04-23 00:00:00 8.9 5 Sur 10 Sur 0 -- -- 89
2019-04-22 23:00:00 9.3 5 Sur 10 Sudoeste 0 -- -- 88
2019-04-22 22:00:00 9.8 5 Sur 14 Sur 0 -- -- 86
2019-04-22 21:00:00 10.6 8 Sudoeste 13 Sudoeste 0 -- -- 81
2019-04-22 20:00:00 11.4 5 Sur 8 Sur 0 -- -- 72
2019-04-22 19:00:00 12.3 4 Sudeste 12 Sur 0 -- -- 67
2019-04-22 18:00:00 13.5 4 Sudeste 13 Este 0 -- -- 63
2019-04-22 17:00:00 12.6 4 Este 19 Nordeste 0 -- -- 67
2019-04-22 16:00:00 13 7 Nordeste 14 Norte 0 -- -- 71
2019-04-22 15:00:00 10.8 6 Nordeste 15 Norte 0 -- -- 72
2019-04-22 14:00:00 10.1 9 Norte 19 Norte 0 -- -- 80
2019-04-22 13:00:00 8.3 13 Norte 19 Norte 0 -- -- 84
2019-04-22 12:00:00 7.5 15 Norte 21 Norte 0 -- -- 88
2019-04-22 11:00:00 7.2 12 Norte 19 Norte 0 -- -- 92
2019-04-22 10:00:00 6.7 15 Norte 24 Norte 0 -- -- 90
2019-04-22 09:00:00 6.3 13 Norte 22 Norte 0 -- -- 93
2019-04-22 08:00:00 5.7 8 Norte 16 Norte 0 -- -- 95
2019-04-22 07:00:00 5.8 10 Norte 23 Norte 0 -- -- 95
2019-04-22 06:00:00 6 13 Norte 24 Norte 0 -- -- 94
2019-04-22 05:00:00 6.1 15 Norte 24 Norte 0 -- -- 93
2019-04-22 04:00:00 6.2 15 Norte 22 Norte 0 -- -- 93
2019-04-22 03:00:00 6.4 14 Norte 21 Norte 0 -- -- 93
2019-04-22 02:00:00 6.4 14 Norte 22 Norte 0 -- -- 93
2019-04-22 01:00:00 6.4 13 Norte 20 Norte 0 -- -- 95
2019-04-22 00:00:00 6.4 13 Norte 23 Norte 0.2 -- -- 94
2019-04-21 23:00:00 6.3 13 Norte 20 Norte 0 -- -- 95
2019-04-21 22:00:00 6.2 13 Norte 19 Norte 1.2 -- -- 97
2019-04-21 21:00:00 6.5 13 Norte 19 Norte 0 -- -- 93
2019-04-21 20:00:00 6.3 13 Norte 21 Norte 0 -- -- 94
2019-04-21 19:00:00 6.5 13 Norte 19 Norte 0.4 -- -- 93
2019-04-21 18:00:00 7 9 Nordeste 22 Norte 0 -- -- 89
2019-04-21 17:00:00 6.7 13 Norte 25 Norte 0.6 -- -- 93
2019-04-21 16:00:00 6.8 14 Norte 23 Norte 0 -- -- 89
2019-04-21 15:00:00 6.4 19 Norte 30 Norte 0 -- -- 92
2019-04-21 14:00:00 6.2 14 Norte 24 Norte 0 -- -- 92
2019-04-21 13:00:00 6.2 12 Norte 18 Norte 0 -- -- 91
2019-04-21 12:00:00 6.4 9 Nordeste 23 Nordeste 0 -- -- 86
2019-04-21 11:00:00 6.4 10 Nordeste 27 Nordeste 0 -- -- 85
2019-04-21 10:00:00 6 10 Nordeste 22 Nordeste 0 -- -- 86
2019-04-21 09:00:00 5.5 8 Norte 18 Norte 0 -- -- 92
2019-04-21 08:00:00 5.5 10 Nordeste 18 Nordeste 0 -- -- 89
2019-04-21 07:00:00 5.4 4 Nordeste 19 Nordeste 0 -- -- 88
2019-04-21 06:00:00 5.3 11 Nordeste 29 Nordeste 0 -- -- 88
2019-04-21 05:00:00 5.4 13 Nordeste 22 Este 0 -- -- 89
2019-04-21 04:00:00 5.4 10 Nordeste 19 Nordeste 0 -- -- 91
2019-04-21 03:00:00 4.9 8 Norte 11 Norte 0.4 -- -- 90
2019-04-21 02:00:00 4.9 0 Calma 13 Este 0.2 -- -- 86
2019-04-21 01:00:00 4.7 2 Oeste 12 Nordeste 0.4 -- -- 88
2019-04-21 00:00:00 4.7 0 Calma 5 Sudoeste 1 -- -- 90
2019-04-20 23:00:00 4.8 3 Este 14 Este 1.8 -- -- 90
2019-04-20 22:00:00 5.2 3 Sudoeste 11 Sudoeste 3 -- -- 93
2019-04-20 21:00:00 5.1 5 Oeste 14 Sur 2.8 -- -- 91
2019-04-20 20:00:00 5.6 6 Sur 13 Sudeste 3.4 -- -- 90
2019-04-20 19:00:00 6.6 2 Sudeste 26 Sudeste 0.8 -- -- 84
2019-04-20 18:00:00 7.7 16 Sudeste 36 Sudeste 0.2 -- -- 77
2019-04-20 17:00:00 11.1 13 Este 28 Este 0 -- -- 53
2019-04-20 16:00:00 11.1 13 Nordeste 27 Nordeste 0 -- -- 62
2019-04-20 15:00:00 11.1 16 Este 31 Este 0 -- -- 57
2019-04-20 14:00:00 10.8 18 Este 34 Este 0 -- -- 62
2019-04-20 13:00:00 10.8 13 Este 28 Este 0 -- -- 63
2019-04-20 12:00:00 10.6 14 Este 24 Este 0 -- -- 63
2019-04-20 11:00:00 10.6 15 Este 31 Este 0 -- -- 62
2019-04-20 10:00:00 9.9 6 Este 28 Nordeste 0 -- -- 69
2019-04-20 09:00:00 8.7 16 Nordeste 27 Nordeste 0 -- -- 71
2019-04-20 08:00:00 8.4 5 Nordeste 13 Este 0 -- -- 72
2019-04-20 07:00:00 8.1 5 Nordeste 13 Nordeste 0 -- -- 74
2019-04-20 06:00:00 9 8 Este 15 Sudeste 0 -- -- 71
2019-04-20 05:00:00 8.7 6 Norte 20 Noroeste 0 -- -- 75
2019-04-20 04:00:00 8.6 8 Norte 21 Nordeste 0 -- -- 75
2019-04-20 03:00:00 8 11 Norte 23 Norte 0 -- -- 80
2019-04-20 02:00:00 7.5 9 Norte 15 Norte 0 -- -- 82
2019-04-20 01:00:00 8 10 Norte 43 Sudeste 0 -- -- 78
2019-04-20 00:00:00 10.2 23 Sudeste 45 Sudeste 0 -- -- 62
2019-04-19 23:00:00 9.4 17 Sudeste 32 Sudeste 0 -- -- 70
2019-04-19 22:00:00 10.1 16 Sudeste 35 Sudeste 0 -- -- 66
2019-04-19 21:00:00 10.1 15 Sudeste 30 Este 0 -- -- 64
2019-04-19 20:00:00 10.8 19 Sudeste 35 Este 0 -- -- 61
2019-04-19 19:00:00 10.5 13 Este 32 Este 0 -- -- 68
2019-04-19 18:00:00 10 25 Sudeste 47 Este 0 -- -- 77
2019-04-19 17:00:00 10.4 26 Este 41 Este 0 -- -- 73
2019-04-19 16:00:00 10.1 19 Este 42 Este 0 -- -- 76
2019-04-19 15:00:00 11.1 24 Sudeste 51 Sudeste 0 -- -- 80
2019-04-19 14:00:00 10.5 26 Este 49 Este 0 -- -- 84
2019-04-19 13:00:00 11 27 Este 45 Sudeste 0 -- -- 79
2019-04-19 12:00:00 8.5 15 Norte 25 Norte 0.2 -- -- 95
2019-04-19 11:00:00 7.3 14 Norte 21 Norte 1.4 -- -- 97
2019-04-19 10:00:00 7.3 10 Norte 16 Norte 1.8 -- -- 97
2019-04-19 09:00:00 7.3 6 Norte 8 Norte 2.8 -- -- 98
2019-04-19 08:00:00 7.1 0 Calma 6 Nordeste 1.6 -- -- 97
2019-04-19 07:00:00 7 4 Sudoeste 15 Sur 2.6 -- -- 96
2019-04-19 06:00:00 7.1 7 Sur 16 Sur 2.4 -- -- 95
2019-04-19 05:00:00 7.2 8 Sudoeste 14 Sur 3 -- -- 95
2019-04-19 04:00:00 6.5 6 Noroeste 20 Noroeste 3.4 -- -- 94
2019-04-19 03:00:00 6.4 12 Noroeste 21 Noroeste 0.6 -- -- 93
2019-04-19 02:00:00 6.9 3 Noroeste 23 Sudeste 1.6 -- -- 92
2019-04-19 01:00:00 7 8 Sur 26 Sudeste 0.6 -- -- 87
2019-04-19 00:00:00 5.9 6 Sudeste 13 Este 3 -- -- 96
2019-04-18 23:00:00 5.9 4 Sudeste 11 Sudeste 2.4 -- -- 97
2019-04-18 22:00:00 6 6 Sudeste 19 Sur 4.2 -- -- 96
2019-04-18 21:00:00 6.7 9 Sur 21 Sudoeste 3 -- -- 94
2019-04-18 20:00:00 7.5 15 Sudoeste 30 Sudoeste 6 -- -- 87
2019-04-18 19:00:00 10.1 10 Sudoeste 20 Oeste 0 -- -- 78
2019-04-18 18:00:00 10.8 12 Sudoeste 26 Sur 0 -- -- 74
2019-04-18 17:00:00 11 17 Sur 32 Sudoeste 0 -- -- 72
2019-04-18 16:00:00 11 23 Sur 35 Sur 0 -- -- 70
2019-04-18 15:00:00 11.7 14 Sudoeste 25 Sur 0 -- -- 65
2019-04-18 14:00:00 12 12 Sur 24 Sur 0 -- -- 62
2019-04-18 13:00:00 12.5 7 Sur 15 Sur 0 -- -- 56
2019-04-18 12:00:00 13 4 Sudeste 8 Noroeste 0 -- -- 51
2019-04-18 11:00:00 11.6 3 Noroeste 11 Este 0 -- -- 61
2019-04-18 10:00:00 10.1 9 Este 18 Oeste 0 -- -- 69
2019-04-18 09:00:00 8.9 11 Oeste 19 Oeste 0 -- -- 72
2019-04-18 08:00:00 7.7 0 Calma 14 Sudeste 0 -- -- 85
2019-04-18 07:00:00 7.4 6 Sur 13 Sudoeste 0 -- -- 85
2019-04-18 06:00:00 7.1 8 Sudoeste 12 Sudoeste 0 -- -- 85
2019-04-18 05:00:00 7.1 2 Sur 13 Sudoeste 0 -- -- 93
2019-04-18 04:00:00 7.2 6 Sudoeste 11 Sudoeste 0 -- -- 92
2019-04-18 03:00:00 7.8 8 Sudeste 17 Sur 0 -- -- 89
2019-04-18 02:00:00 8.7 11 Sur 26 Sur 0 -- -- 86
2019-04-18 01:00:00 8.9 15 Sur 23 Sur 0 -- -- 86
2019-04-18 00:00:00 9.3 14 Sur 24 Sur 0 -- -- 83
2019-04-17 23:00:00 9.9 14 Sur 34 Sudoeste 0 -- -- 81
2019-04-17 22:00:00 11 23 Sur 37 Sur 0 -- -- 75
2019-04-17 21:00:00 12.3 24 Sur 39 Sur 0 -- -- 71
2019-04-17 20:00:00 14 28 Sur 44 Sur 0 -- -- 64
2019-04-17 19:00:00 15.7 23 Sur 38 Sur 0 -- -- 56
2019-04-17 18:00:00 18 25 Sur 42 Sur 0 -- -- 43
2019-04-17 17:00:00 18.9 28 Sur 46 Sur 0 -- -- 39
2019-04-17 16:00:00 18.6 30 Sur 47 Sur 0 -- -- 36
2019-04-17 15:00:00 19 32 Sur 48 Sur 0 -- -- 36
2019-04-17 14:00:00 17.3 24 Sur 43 Sur 0 -- -- 49
2019-04-17 13:00:00 14.7 27 Sur 39 Sur 0 -- -- 57
2019-04-17 12:00:00 12.9 27 Sur 38 Sur 0 -- -- 63
2019-04-17 11:00:00 10.5 17 Sur 28 Sur 0 -- -- 71
2019-04-17 10:00:00 9.2 17 Sur 27 Sur 0 -- -- 79
2019-04-17 09:00:00 7.6 10 Sur 17 Sur 0 -- -- 88
2019-04-17 08:00:00 6.5 9 Sur 14 Sur 0 -- -- 92
2019-04-17 07:00:00 6.4 9 Sur 18 Sur 0 -- -- 92
2019-04-17 06:00:00 7 8 Sur 23 Sur 0 -- -- 90
2019-04-17 05:00:00 6.8 8 Sur 20 Sur 0 -- -- 90
2019-04-17 04:00:00 7.3 11 Sur 17 Sur 0 -- -- 88
2019-04-17 03:00:00 7.8 9 Sudoeste 26 Sur 0 -- -- 86
2019-04-17 02:00:00 8.7 18 Sur 29 Sur 0 -- -- 83
2019-04-17 01:00:00 9.2 17 Sur 31 Sur 0 -- -- 83
2019-04-17 00:00:00 9.3 18 Sudoeste 30 Sur 0 -- -- 84
2019-04-16 23:00:00 9.9 17 Sur 31 Sur 0 -- -- 82
2019-04-16 22:00:00 10.8 23 Sur 36 Sudoeste 0 -- -- 78
2019-04-16 21:00:00 12.4 23 Sur 37 Sur 0 -- -- 70
2019-04-16 20:00:00 15 20 Sur 35 Sur 0 -- -- 60
2019-04-16 19:00:00 17.7 22 Sur 35 Sudeste 0 -- -- 48
2019-04-16 18:00:00 19.1 13 Sur 23 Sudeste 0 -- -- 30
2019-04-16 17:00:00 18.8 11 Sur 20 Sur 0 -- -- 30
2019-04-16 16:00:00 17.6 7 Sudeste 15 Este 0 -- -- 28
2019-04-16 15:00:00 16.4 6 Sur 14 Sur 0 -- -- 36
2019-04-16 14:00:00 15.7 5 Sudeste 14 Este 0 -- -- 45
2019-04-16 13:00:00 14 4 Sur 14 Sudeste 0 -- -- 56
2019-04-16 12:00:00 13.3 4 Este 14 Sudeste 0 -- -- 57
2019-04-16 11:00:00 11.4 8 Nordeste 16 Nordeste 0 -- -- 70
2019-04-16 10:00:00 10.2 12 Nordeste 25 Norte 0 -- -- 77
2019-04-16 09:00:00 8.6 13 Norte 20 Norte 0 -- -- 86
2019-04-16 08:00:00 7.6 10 Norte 13 Norte 0 -- -- 92
2019-04-16 07:00:00 7.3 5 Norte 17 Norte 0 -- -- 88
2019-04-16 06:00:00 7 3 Noroeste 15 Norte 0 -- -- 83
2019-04-16 05:00:00 7.6 9 Norte 13 Norte 0 -- -- 86
2019-04-16 04:00:00 7.8 6 Noroeste 8 Norte 0 -- -- 86
2019-04-16 03:00:00 9 4 Norte 14 Nordeste 0.2 -- -- 82
2019-04-16 02:00:00 9.5 8 Norte 23 Norte 1.2 -- -- 82
2019-04-16 01:00:00 10.8 15 Norte 24 Norte 0 -- -- 73
2019-04-16 00:00:00 11.4 18 Norte 33 Norte 0 -- -- 73
2019-04-15 23:00:00 13.8 11 Oeste 40 Oeste 0 -- -- 54
2019-04-15 22:00:00 14.4 13 Noroeste 36 Noroeste 0 -- -- 58
2019-04-15 21:00:00 14.4 16 Sur 32 Sur 0 -- -- 64
2019-04-15 20:00:00 16.5 20 Sudoeste 44 Sur 0 -- -- 60
2019-04-15 19:00:00 18.9 23 Sudoeste 37 Sudoeste 0 -- -- 52
2019-04-15 18:00:00 20.2 22 Sudoeste 44 Sudoeste 0 -- -- 45
2019-04-15 17:00:00 21.1 25 Sur 41 Sur 0 -- -- 42
2019-04-15 16:00:00 19.6 23 Sur 43 Sudoeste 0 -- -- 48
2019-04-15 15:00:00 18.4 25 Sur 43 Sur 0 -- -- 50
2019-04-15 14:00:00 18.4 27 Sur 48 Sur 0 -- -- 51
2019-04-15 13:00:00 18.8 32 Sur 50 Sur 0 -- -- 50
2019-04-15 12:00:00 17.6 23 Sur 36 Sur 0 -- -- 52
2019-04-15 11:00:00 15.8 20 Sur 29 Sur 0 -- -- 59
2019-04-15 10:00:00 13.5 14 Sur 24 Sur 0 -- -- 66
2019-04-15 09:00:00 9.6 9 Sudoeste 16 Sudoeste 0 -- -- 82
2019-04-15 08:00:00 6.4 6 Sur 12 Sudoeste 0 -- -- 87
2019-04-15 07:00:00 7.1 9 Sudoeste 15 Sur 0 -- -- 85
2019-04-15 06:00:00 6.8 6 Sur 10 Sur 0 -- -- 87
2019-04-15 05:00:00 7 5 Sur 10 Sur 0 -- -- 86
2019-04-15 04:00:00 6.6 3 Sur 8 Sudoeste 0 -- -- 87
2019-04-15 03:00:00 7.2 4 Sur 9 Noroeste 0 -- -- 85
2019-04-15 02:00:00 8.6 0 Calma -- -- 0 -- -- 81
2019-04-15 01:00:00 9.5 0 Calma 13 Noroeste 0 -- -- 77
2019-04-15 00:00:00 12.4 10 Noroeste 13 Noroeste 0 -- -- 66
2019-04-14 23:00:00 11.8 8 Norte 15 Noroeste 0 -- -- 70
2019-04-14 22:00:00 13.5 6 Norte 20 Norte 0 -- -- 64
2019-04-14 21:00:00 14.9 13 Norte 22 Norte 0 -- -- 62
2019-04-14 20:00:00 17.6 15 Norte 27 Nordeste 0 -- -- 54
2019-04-14 19:00:00 19.3 17 Nordeste 34 Norte 0 -- -- 48
2019-04-14 18:00:00 21.1 18 Norte 36 Norte 0 -- -- 41
2019-04-14 17:00:00 20.6 18 Nordeste 31 Norte 0 -- -- 42
2019-04-14 16:00:00 20.8 18 Norte 29 Norte 0 -- -- 39
2019-04-14 15:00:00 20.3 18 Norte 34 Norte 0 -- -- 41
2019-04-14 14:00:00 19.3 22 Norte 40 Norte 0 -- -- 45
2019-04-14 13:00:00 18 19 Norte 27 Norte 0 -- -- 47
2019-04-14 12:00:00 14.8 6 Sur 10 Sur 0 -- -- 44
2019-04-14 11:00:00 13.4 3 Nordeste 10 Sur 0 -- -- 41
2019-04-14 10:00:00 9.5 7 Sur 13 Sur 0 -- -- 48
2019-04-14 09:00:00 5.2 8 Sur 10 Sur 0 -- -- 58
2019-04-14 08:00:00 3.5 0 Calma -- -- 0 -- -- 59
2019-04-14 07:00:00 2.7 0 Calma 12 Sur 0 -- -- 59
2019-04-14 06:00:00 2.3 7 Sur 12 Sur 0 -- -- 61
2019-04-14 05:00:00 2.5 6 Sur 12 Sur 0 -- -- 62
2019-04-14 04:00:00 3.2 5 Sur 11 Sur 0 -- -- 60
2019-04-14 03:00:00 3.8 7 Sur 11 Sur 0 -- -- 55
2019-04-14 02:00:00 6.7 3 Noroeste 7 Sudoeste 0 -- -- 46
2019-04-14 01:00:00 6.4 3 Noroeste 23 Norte 0 -- -- 42
2019-04-14 00:00:00 6.9 0 Calma 21 Noroeste 0 -- -- 40
2019-04-13 23:00:00 9.4 14 Noroeste 22 Noroeste 0 -- -- 30
2019-04-13 22:00:00 9.2 10 Noroeste 16 Noroeste 0 -- -- 35
2019-04-13 21:00:00 11.1 6 Noroeste 9 Noroeste 0 -- -- 29
2019-04-13 20:00:00 15.7 7 Nordeste 22 Nordeste 0 -- -- 20
2019-04-13 19:00:00 17.2 15 Nordeste 24 Nordeste 0 -- -- 17
2019-04-13 18:00:00 17.8 15 Nordeste 27 Norte 0 -- -- 17
2019-04-13 17:00:00 18 13 Norte 26 Norte 0 -- -- 19
2019-04-13 16:00:00 17.6 15 Nordeste 29 Nordeste 0 -- -- 21
2019-04-13 15:00:00 17 13 Nordeste 23 Nordeste 0 -- -- 26
2019-04-13 14:00:00 15.4 11 Nordeste 21 Nordeste 0 -- -- 25
2019-04-13 13:00:00 13.9 10 Nordeste 20 Nordeste 0 -- -- 27
2019-04-13 12:00:00 12 7 Nordeste 21 Nordeste 0 -- -- 35
2019-04-13 11:00:00 8.9 4 Nordeste 10 Nordeste 0 -- -- 46
2019-04-13 10:00:00 4.6 3 Sur 6 Sur 0 -- -- 64
2019-04-13 09:00:00 1.6 0 Calma -- -- 0 -- -- 75
2019-04-13 08:00:00 -2.6 0 Calma -- -- 0 -- -- 87
2019-04-13 07:00:00 -2.7 0 Calma -- -- 0 -- -- 92
2019-04-13 06:00:00 -1.3 0 Calma 9 Noroeste 0 -- -- 89
2019-04-13 05:00:00 -0.4 0 Calma 8 Noroeste 0 -- -- 88
2019-04-13 04:00:00 -0.7 0 Calma -- -- 0 -- -- 91
2019-04-13 03:00:00 1.1 0 Calma 12 Oeste 0 -- -- 84
2019-04-13 02:00:00 3.1 7 Noroeste 14 Noroeste 0 -- -- 76
2019-04-13 01:00:00 4.7 9 Noroeste 18 Noroeste 0 -- -- 70
2019-04-13 00:00:00 5.4 13 Noroeste 21 Noroeste 0 -- -- 69
2019-04-12 23:00:00 6.4 9 Norte 20 Noroeste 0 -- -- 65
2019-04-12 22:00:00 7.4 13 Noroeste 18 Noroeste 0 -- -- 60
2019-04-12 21:00:00 8.6 6 Noroeste 14 Nordeste 0 -- -- 57
2019-04-12 20:00:00 12.2 11 Nordeste 26 Nordeste 0 -- -- 43
2019-04-12 19:00:00 13.5 12 Norte 26 Nordeste 0 -- -- 40
2019-04-12 18:00:00 13.7 13 Nordeste 28 Norte 0 -- -- 42
2019-04-12 17:00:00 13.4 18 Nordeste 29 Nordeste 0 -- -- 42
2019-04-12 16:00:00 12.9 15 Nordeste 27 Norte 0 -- -- 43
2019-04-12 15:00:00 12 17 Nordeste 30 Norte 0 -- -- 45
2019-04-12 14:00:00 10.5 16 Norte 35 Norte 0 -- -- 53
2019-04-12 13:00:00 8.5 20 Norte 31 Norte 0 -- -- 58
2019-04-12 12:00:00 7 16 Norte 30 Norte 0 -- -- 66
2019-04-12 11:00:00 5.9 16 Nordeste 33 Nordeste 0 -- -- 69
2019-04-12 10:00:00 4.6 9 Nordeste 16 Nordeste 0 -- -- 77
2019-04-12 09:00:00 3.8 9 Nordeste 15 Nordeste 0 -- -- 81
2019-04-12 08:00:00 3.4 7 Nordeste 12 Nordeste 0 -- -- 85
2019-04-12 07:00:00 3.5 6 Nordeste 10 Nordeste 0 -- -- 83
2019-04-12 06:00:00 2.8 4 Nordeste 11 Norte 0 -- -- 87
2019-04-12 05:00:00 2.9 5 Nordeste 10 Norte 0 -- -- 85
2019-04-12 04:00:00 2.6 4 Nordeste 13 Nordeste 0 -- -- 87
2019-04-12 03:00:00 2.6 9 Norte 19 Norte 0 -- -- 83
2019-04-12 02:00:00 3 2 Norte 26 Norte 0 -- -- 82
2019-04-12 01:00:00 4.7 15 Norte 26 Noroeste 0 -- -- 75
2019-04-12 00:00:00 5.1 8 Nordeste 21 Norte 0 -- -- 79
2019-04-11 23:00:00 4.9 13 Norte 22 Norte 0 -- -- 78
2019-04-11 22:00:00 4.8 9 Norte 25 Nordeste 0 -- -- 75
2019-04-11 21:00:00 6.9 17 Nordeste 34 Nordeste 0 -- -- 67
2019-04-11 20:00:00 9.5 21 Norte 36 Nordeste 0 -- -- 57
2019-04-11 19:00:00 10.9 24 Nordeste 48 Norte 0 -- -- 53
2019-04-11 18:00:00 11.9 26 Norte 41 Norte 0 -- -- 47
2019-04-11 17:00:00 11.4 26 Norte 51 Norte 0 -- -- 46
2019-04-11 16:00:00 11.5 26 Norte 39 Norte 0 -- -- 46
2019-04-11 15:00:00 10.6 24 Norte 39 Norte 0 -- -- 48
2019-04-11 14:00:00 9.8 24 Norte 39 Norte 0 -- -- 53
2019-04-11 13:00:00 9.8 26 Norte 41 Norte 0 -- -- 52
2019-04-11 12:00:00 7.3 24 Norte 37 Norte 0 -- -- 59
2019-04-11 11:00:00 7.3 19 Norte 35 Norte 0 -- -- 60
2019-04-11 10:00:00 5.3 17 Norte 39 Norte 0 -- -- 71
2019-04-11 09:00:00 4.6 21 Norte 31 Norte 0 -- -- 74
2019-04-11 08:00:00 4.2 18 Norte 30 Norte 0 -- -- 76
2019-04-11 07:00:00 3.9 12 Norte 27 Norte 0 -- -- 78
2019-04-11 06:00:00 3.8 10 Nordeste 32 Norte 0 -- -- 81
2019-04-11 05:00:00 4.4 20 Norte 39 Norte 0 -- -- 76
2019-04-11 04:00:00 4.7 21 Norte 40 Norte 0 -- -- 75
2019-04-11 03:00:00 4.1 16 Norte 31 Noroeste 0 -- -- 78
2019-04-11 02:00:00 3.9 18 Noroeste 28 Noroeste 0 -- -- 81
2019-04-11 01:00:00 4.7 19 Norte 28 Norte 0 -- -- 77
2019-04-11 00:00:00 5 18 Norte 28 Norte 0 -- -- 77
2019-04-10 23:00:00 6.1 18 Norte 33 Noroeste 0 -- -- 72
2019-04-10 22:00:00 6.6 20 Noroeste 29 Norte 0 -- -- 72
2019-04-10 21:00:00 7.5 21 Norte 33 Norte 0 -- -- 68
2019-04-10 20:00:00 8.5 21 Norte 36 Norte 0 -- -- 62
2019-04-10 19:00:00 9.2 24 Norte 42 Norte 0 -- -- 60
2019-04-10 18:00:00 9.8 30 Norte 43 Norte 0 -- -- 54
2019-04-10 17:00:00 9.4 26 Nordeste 46 Nordeste 0 -- -- 61
2019-04-10 16:00:00 8.2 28 Norte 41 Nordeste 0 -- -- 65
2019-04-10 15:00:00 9.6 20 Norte 37 Norte 0 -- -- 57
2019-04-10 14:00:00 9.2 27 Norte 45 Noroeste 0 -- -- 56
2019-04-10 13:00:00 8.7 28 Noroeste 52 Noroeste 0 -- -- 61
2019-04-10 12:00:00 7.9 24 Norte 41 Norte 0 -- -- 59
2019-04-10 11:00:00 6.1 29 Norte 42 Norte 0 -- -- 67
2019-04-10 10:00:00 5.8 26 Norte 38 Norte 0 -- -- 73
2019-04-10 09:00:00 5.8 11 Norte 17 Norte 0 -- -- 77
2019-04-10 08:00:00 2.9 4 Norte 16 Nordeste 0 -- -- 87
2019-04-10 07:00:00 2.7 9 Nordeste 20 Norte 0 -- -- 88
2019-04-10 06:00:00 3.7 13 Norte 26 Noroeste 0 -- -- 82
2019-04-10 05:00:00 3.7 18 Noroeste 34 Noroeste 0 -- -- 84
2019-04-10 04:00:00 1.8 5 Nordeste 16 Norte 0 -- -- 93
2019-04-10 03:00:00 3.4 11 Nordeste 22 Norte 0 -- -- 87
2019-04-10 02:00:00 4.7 14 Noroeste 22 Norte 0 -- -- 75
2019-04-10 01:00:00 5.5 17 Noroeste 28 Noroeste 0 -- -- 72
2019-04-10 00:00:00 4 0 Calma 8 Este 0 -- -- 85
2019-04-09 23:00:00 4.6 4 Nordeste 18 Norte 0 -- -- 81
2019-04-09 22:00:00 5 7 Nordeste 30 Norte 0 -- -- 79
2019-04-09 21:00:00 5.2 16 Noroeste 36 Noroeste 0 -- -- 75
2019-04-09 20:00:00 5.6 17 Norte 33 Noroeste 0 -- -- 77
2019-04-09 19:00:00 5.9 31 Noroeste 49 Oeste 0 -- -- 75
2019-04-09 18:00:00 7 11 Noroeste 41 Noroeste 0 -- -- 74
2019-04-09 17:00:00 8.7 3 Noroeste 34 Oeste 0 -- -- 66
2019-04-09 16:00:00 7.4 24 Noroeste 40 Oeste 0 -- -- 69
2019-04-09 15:00:00 9.6 17 Noroeste 38 Noroeste 0 -- -- 54
2019-04-09 14:00:00 9.2 20 Noroeste 40 Noroeste 0 -- -- 55
2019-04-09 13:00:00 9.7 19 Noroeste 36 Norte 0 -- -- 56
2019-04-09 12:00:00 8 17 Noroeste 31 Noroeste 0 -- -- 62
2019-04-09 11:00:00 7.7 16 Noroeste 29 Noroeste 0 -- -- 62
2019-04-09 10:00:00 6.7 4 Nordeste 8 Este 0 -- -- 80
2019-04-09 09:00:00 3.6 0 Calma 6 Norte 0 -- -- 90
2019-04-09 08:00:00 2.3 0 Calma 7 Sudeste 0 -- -- 96
2019-04-09 07:00:00 2.5 3 Sur 9 Sur 0 -- -- 94
2019-04-09 06:00:00 1.5 0 Calma 5 Sudoeste 0 -- -- 96
2019-04-09 05:00:00 2.5 0 Calma 21 Norte 0 -- -- 94
2019-04-09 04:00:00 3.9 15 Nordeste 21 Norte 0.2 -- -- 90
2019-04-09 03:00:00 4.1 18 Noroeste 26 Noroeste 0.4 -- -- 88
2019-04-09 02:00:00 3 0 Calma 14 Norte 0 -- -- 94
2019-04-09 01:00:00 3.9 10 Nordeste 26 Norte 0 -- -- 89
2019-04-09 00:00:00 5.2 18 Nordeste 27 Nordeste 0 -- -- 85
2019-04-08 23:00:00 5.5 6 Noroeste 15 Oeste 0 -- -- 82
2019-04-08 22:00:00 7.1 13 Norte 22 Norte 0 -- -- 77
2019-04-08 21:00:00 9.5 7 Oeste 26 Noroeste 0 -- -- 60
2019-04-08 20:00:00 12.2 10 Oeste 33 Noroeste 0 -- -- 46
2019-04-08 19:00:00 13.3 16 Oeste 39 Noroeste 0 -- -- 41
2019-04-08 18:00:00 14 18 Oeste 34 Noroeste 0 -- -- 45
2019-04-08 17:00:00 13 19 Noroeste 36 Oeste 0 -- -- 53
2019-04-08 16:00:00 14.1 15 Oeste 41 Noroeste 0 -- -- 50
2019-04-08 15:00:00 14.1 15 Oeste 37 Noroeste 0 -- -- 57
2019-04-08 14:00:00 13.1 15 Noroeste 29 Noroeste 0.2 -- -- 58
2019-04-08 13:00:00 12.3 3 Sudeste 13 Sur 0 -- -- 63
2019-04-08 12:00:00 9.9 8 Sudoeste 15 Sur 0 -- -- 74
2019-04-08 11:00:00 8.4 8 Sur 12 Sudoeste 0 -- -- 83
2019-04-08 10:00:00 7.4 7 Sudoeste 10 Sudoeste 0 -- -- 85
2019-04-08 09:00:00 6.9 6 Sur 12 Sur 0 -- -- 84
2019-04-08 08:00:00 4.6 5 Sudeste 10 Sur 0 -- -- 91
2019-04-08 07:00:00 4.6 4 Sudoeste 10 Norte 0 -- -- 90
2019-04-08 06:00:00 3.9 2 Nordeste 13 Sudoeste 0 -- -- 93
2019-04-08 05:00:00 4 6 Sur 13 Sur 0 -- -- 92
2019-04-08 04:00:00 4.1 6 Sur 14 Sur 0 -- -- 93
2019-04-08 03:00:00 4.5 9 Sur 15 Sur 0.2 -- -- 91
2019-04-08 02:00:00 5 7 Sur 14 Sur 0 -- -- 86
2019-04-08 01:00:00 5.6 5 Sudeste 13 Sudeste 0 -- -- 80
2019-04-08 00:00:00 6.6 5 Sudoeste 16 Oeste 0 -- -- 67
2019-04-07 23:00:00 6.6 5 Oeste 19 Oeste 0 -- -- 65
2019-04-07 22:00:00 6.7 4 Sur 12 Oeste 0 -- -- 60
2019-04-07 21:00:00 7.3 4 Oeste 26 Noroeste 0 -- -- 60
2019-04-07 20:00:00 8.7 14 Noroeste 31 Oeste 0 -- -- 50
2019-04-07 19:00:00 9.2 19 Noroeste 32 Noroeste 0 -- -- 46
2019-04-07 18:00:00 9.5 14 Noroeste 28 Noroeste 0 -- -- 47
2019-04-07 17:00:00 8.9 17 Norte 33 Noroeste 0 -- -- 49
2019-04-07 16:00:00 8.3 23 Noroeste 40 Noroeste 0 -- -- 54
2019-04-07 15:00:00 8.4 21 Norte 40 Noroeste 0 -- -- 54
2019-04-07 14:00:00 6.7 20 Noroeste 41 Noroeste 0 -- -- 59
2019-04-07 13:00:00 6.5 30 Noroeste 48 Norte 0 -- -- 61
2019-04-07 12:00:00 4.7 32 Norte 48 Norte 0 -- -- 66
2019-04-07 11:00:00 4.1 27 Norte 40 Noroeste 0 -- -- 72
2019-04-07 10:00:00 3.4 17 Norte 36 Norte 0 -- -- 77
2019-04-07 09:00:00 2.3 10 Nordeste 14 Nordeste 0 -- -- 87
2019-04-07 08:00:00 2.1 7 Norte 15 Norte 0 -- -- 83
2019-04-07 07:00:00 1.1 10 Noroeste 15 Norte 0 -- -- 87
2019-04-07 06:00:00 1.6 12 Norte 19 Noroeste 0 -- -- 82
2019-04-07 05:00:00 1.5 3 Norte 15 Noroeste 0 -- -- 79
2019-04-07 04:00:00 2.5 13 Noroeste 20 Noroeste 0 -- -- 75
2019-04-07 03:00:00 2.8 8 Noroeste 11 Noroeste 0 -- -- 81
2019-04-07 02:00:00 2.3 6 Noroeste 11 Noroeste 0 -- -- 86
2019-04-07 01:00:00 2.5 3 Oeste 24 Noroeste 0.2 -- -- 88
2019-04-07 00:00:00 3 4 Oeste 13 Noroeste 0 -- -- 83
2019-04-06 23:00:00 3.1 3 Oeste 23 Sudeste 0 -- -- 78
2019-04-06 22:00:00 2.5 4 Oeste 14 Noroeste 0 -- -- 90
2019-04-06 21:00:00 2.2 12 Oeste 30 Sudoeste 1.8 -- -- 91
2019-04-06 20:00:00 2.2 2 Nordeste 34 Norte 1 -- -- 94
2019-04-06 19:00:00 3.6 27 Norte 39 Norte 0 -- -- 85
2019-04-06 18:00:00 7.6 12 Noroeste 33 Oeste 0 -- -- 53
2019-04-06 17:00:00 6.5 10 Sudoeste 17 Sudoeste 0 -- -- 63
2019-04-06 16:00:00 3.8 7 Noroeste 38 Oeste 0.2 -- -- 84
2019-04-06 15:00:00 7.8 19 Noroeste 37 Oeste 0 -- -- 59
2019-04-06 14:00:00 9.2 17 Oeste 37 Oeste 0 -- -- 48
2019-04-06 13:00:00 6.5 16 Oeste 40 Oeste 0 -- -- 58
2019-04-06 12:00:00 5.2 13 Oeste 29 Oeste 0 -- -- 60
2019-04-06 11:00:00 3.9 16 Noroeste 35 Noroeste 0 -- -- 64
2019-04-06 10:00:00 3.9 15 Noroeste 31 Oeste 0 -- -- 62
2019-04-06 09:00:00 3.9 5 Oeste 12 Noroeste 0 -- -- 65
2019-04-06 08:00:00 1.1 0 Calma 9 Norte 0 -- -- 81
2019-04-06 07:00:00 1.2 0 Calma -- -- 0 -- -- 84
2019-04-06 06:00:00 0.6 0 Calma 13 Noroeste 0 -- -- 84
2019-04-06 05:00:00 1.3 6 Noroeste 14 Oeste 0 -- -- 76
2019-04-06 04:00:00 1.8 7 Oeste 30 Oeste 0 -- -- 73
2019-04-06 03:00:00 2.7 18 Oeste 38 Noroeste 0 -- -- 70
2019-04-06 02:00:00 3 15 Noroeste 28 Noroeste 0 -- -- 71
2019-04-06 01:00:00 3.1 10 Noroeste 24 Noroeste 0 -- -- 75
2019-04-06 00:00:00 3.3 11 Noroeste 22 Noroeste 0 -- -- 76
2019-04-05 23:00:00 2.8 3 Nordeste 15 Norte 0 -- -- 83
2019-04-05 22:00:00 3.2 2 Nordeste 30 Oeste 0 -- -- 78
2019-04-05 21:00:00 4.4 14 Oeste 34 Oeste 0 -- -- 80
2019-04-05 20:00:00 5.3 15 Sudoeste 30 Sudoeste 0 -- -- 75
2019-04-05 19:00:00 5.5 15 Sur 29 Sur 0 -- -- 76
2019-04-05 18:00:00 6.1 21 Sur 36 Sur 0 -- -- 75
2019-04-05 17:00:00 6.6 19 Sur 31 Sur 0 -- -- 73
2019-04-05 16:00:00 6.7 18 Sudoeste 37 Sudoeste 0 -- -- 70
2019-04-05 15:00:00 7 24 Sudoeste 36 Sudoeste 0 -- -- 73
2019-04-05 14:00:00 8.3 14 Sur 30 Sur 0 -- -- 63
2019-04-05 13:00:00 8.7 18 Sur 30 Sur 0 -- -- 61
2019-04-05 12:00:00 7.5 14 Sudoeste 34 Sudoeste 0 -- -- 63
2019-04-05 11:00:00 6.7 10 Sudoeste 22 Sur 0 -- -- 63
2019-04-05 10:00:00 6.5 13 Sur 25 Sur 0 -- -- 67
2019-04-05 09:00:00 4.8 14 Sur 23 Sudoeste 0 -- -- 79
2019-04-05 08:00:00 4 16 Sudoeste 26 Sudoeste 0 -- -- 87
2019-04-05 07:00:00 4.7 11 Sur 25 Sur 0 -- -- 85
2019-04-05 06:00:00 5.3 15 Sur 29 Sudeste 0 -- -- 81
2019-04-05 05:00:00 5.4 16 Sur 27 Sudeste 0 -- -- 81
2019-04-05 04:00:00 4.4 15 Sur 23 Sur 0 -- -- 84
2019-04-05 03:00:00 3.4 17 Sur 24 Sur 0 -- -- 85
2019-04-05 02:00:00 2.7 11 Sur 22 Sur 0 -- -- 80
2019-04-05 01:00:00 1.6 5 Sur 11 Sudoeste 0 -- -- 86
2019-04-05 00:00:00 2.8 4 Sur 17 Oeste 0 -- -- 65
2019-04-04 23:00:00 4.2 10 Oeste 19 Oeste 0 -- -- 52
2019-04-04 22:00:00 5.8 10 Oeste 16 Oeste 0 -- -- 47
2019-04-04 21:00:00 7.8 6 Oeste 15 Sudoeste 0 -- -- 43
2019-04-04 20:00:00 11.2 6 Oeste 26 Sudoeste 0 -- -- 35
2019-04-04 19:00:00 11.4 15 Sur 24 Sur 0 -- -- 30
2019-04-04 18:00:00 12.3 7 Sur 26 Sur 0 -- -- 35
2019-04-04 17:00:00 11.1 5 Sudeste 17 Sudeste 0 -- -- 35
2019-04-04 16:00:00 9.9 9 Sudeste 18 Sudeste 0 -- -- 47
2019-04-04 15:00:00 9.1 4 Este 22 Sur 0 -- -- 42
2019-04-04 14:00:00 8.3 8 Nordeste 26 Nordeste 0 -- -- 51
2019-04-04 13:00:00 7.1 13 Nordeste 26 Este 0 -- -- 53
2019-04-04 12:00:00 5.6 14 Nordeste 24 Nordeste 0 -- -- 56
2019-04-04 11:00:00 3.9 13 Nordeste 19 Nordeste 0 -- -- 62
2019-04-04 10:00:00 2.4 4 Nordeste 12 Norte 0 -- -- 69
2019-04-04 09:00:00 0.2 8 Norte 13 Norte 0 -- -- 73
2019-04-04 08:00:00 -2.2 4 Norte 11 Nordeste 0 -- -- 88
2019-04-04 07:00:00 -2.6 3 Nordeste 5 Nordeste 0 -- -- 93
2019-04-04 06:00:00 -1.8 0 Calma 9 Noroeste 0 -- -- 96
2019-04-04 05:00:00 -1.1 6 Noroeste 12 Noroeste 0 -- -- 91
2019-04-04 04:00:00 -0.7 6 Noroeste 9 Noroeste 0 -- -- 92
2019-04-04 03:00:00 -0.1 4 Noroeste 6 Oeste 0 -- -- 93
2019-04-04 02:00:00 -0.1 0 Calma 8 Noroeste 0 -- -- 94
2019-04-04 01:00:00 0.7 7 Norte 14 Norte 0 -- -- 93
2019-04-04 00:00:00 1.7 9 Norte 20 Norte 0 -- -- 87
2019-04-03 23:00:00 2.4 13 Norte 31 Norte 0 -- -- 87
2019-04-03 22:00:00 2.3 23 Norte 40 Norte 0 -- -- 91
2019-04-03 21:00:00 3.9 30 Norte 40 Norte 0 -- -- 87
2019-04-03 20:00:00 6.8 10 Norte 32 Norte 0 -- -- 73
2019-04-03 19:00:00 7.6 16 Norte 25 Norte 0 -- -- 67
2019-04-03 18:00:00 6.1 14 Norte 32 Norte 0.2 -- -- 80
2019-04-03 17:00:00 6.2 21 Norte 42 Norte 0 -- -- 81
2019-04-03 16:00:00 7.6 29 Norte 43 Norte 0 -- -- 77
2019-04-03 15:00:00 9.9 23 Norte 39 Noroeste 0 -- -- 69
2019-04-03 14:00:00 13.9 17 Oeste 33 Noroeste 0 -- -- 44
2019-04-03 13:00:00 13.4 21 Noroeste 37 Noroeste 0 -- -- 49
2019-04-03 12:00:00 11.6 21 Noroeste 41 Noroeste 0 -- -- 52
2019-04-03 11:00:00 9.6 8 Sudeste 18 Sur 0 -- -- 77
2019-04-03 10:00:00 6.8 10 Sur 14 Sur 0 -- -- 87
2019-04-03 09:00:00 4.2 9 Sudoeste 15 Sur 0 -- -- 96
2019-04-03 08:00:00 3.8 9 Sur 13 Sur 0 -- -- 97
2019-04-03 07:00:00 3.7 0 Calma 10 Sur 0 -- -- 96
2019-04-03 06:00:00 4.2 4 Sur 14 Sur 0 -- -- 96
2019-04-03 05:00:00 3.9 6 Sudoeste 12 Sur 0 -- -- 97
2019-04-03 04:00:00 4.3 7 Sudoeste 14 Sur 0 -- -- 95
2019-04-03 03:00:00 4.6 10 Sudoeste 20 Sur 0 -- -- 95
2019-04-03 02:00:00 4.8 5 Sur 10 Sur 0 -- -- 97
2019-04-03 01:00:00 4.6 4 Sur 9 Sudoeste 0 -- -- 97
2019-04-03 00:00:00 5.7 7 Sudoeste 13 Sudoeste 0 -- -- 96
2019-04-02 23:00:00 5.7 5 Oeste 13 Sur 0.2 -- -- 91
2019-04-02 22:00:00 6.4 8 Sur 13 Sur 0.8 -- -- 89
2019-04-02 21:00:00 6.6 4 Sur 9 Sudoeste 1.6 -- -- 92
2019-04-02 20:00:00 6.9 5 Sudoeste 13 Nordeste 5 -- -- 92
2019-04-02 19:00:00 5.1 11 Norte 32 Noroeste 4 -- -- 81
2019-04-02 18:00:00 13 10 Sudoeste 20 Sudoeste 0 -- -- 55
2019-04-02 17:00:00 15.2 4 Sudeste 13 Norte 0 -- -- 46
2019-04-02 16:00:00 13.1 12 Norte 34 Norte 0.2 -- -- 58
2019-04-02 15:00:00 12 20 Norte 36 Norte 0 -- -- 65
2019-04-02 14:00:00 13 9 Norte 19 Nordeste 0 -- -- 61
2019-04-02 13:00:00 13 7 Norte 15 Este 0 -- -- 64
2019-04-02 12:00:00 12.3 0 Calma 10 Sur 0 -- -- 65
2019-04-02 11:00:00 11 3 Sudeste 9 Este 0 -- -- 73
2019-04-02 10:00:00 7.7 2 Este 7 Sudeste 0 -- -- 84
2019-04-02 09:00:00 6.6 2 Sudeste 17 Noroeste 0 -- -- 87
2019-04-02 08:00:00 6.3 8 Norte 15 Norte 0 -- -- 85
2019-04-02 07:00:00 4.8 0 Calma -- -- 0 -- -- 98
2019-04-02 06:00:00 4.7 0 Calma 10 Sudoeste 0 -- -- 96
2019-04-02 05:00:00 4.7 3 Sudoeste 7 Sudoeste 0 -- -- 98
2019-04-02 04:00:00 5.5 6 Sudoeste 10 Sur 0 -- -- 98
2019-04-02 03:00:00 6.4 4 Sudoeste 11 Sur 0 -- -- 97
2019-04-02 02:00:00 7.5 8 Sur 17 Sur 0 -- -- 95
2019-04-02 01:00:00 7.7 7 Sur 11 Sur 0 -- -- 93
2019-04-02 00:00:00 7.7 7 Sur 14 Sur 0 -- -- 92
2019-04-01 23:00:00 8.2 4 Sudoeste 8 Sudoeste 0 -- -- 89
2019-04-01 22:00:00 9 3 Sur 9 Norte 0 -- -- 85
2019-04-01 21:00:00 9 8 Norte 19 Sur 0 -- -- 86
2019-04-01 20:00:00 9.7 11 Sur 24 Sur 0.2 -- -- 82
2019-04-01 19:00:00 10.6 18 Sur 26 Sur 0 -- -- 78
2019-04-01 18:00:00 10.5 15 Sur 27 Sur 0.2 -- -- 78
2019-04-01 17:00:00 11.9 14 Sur 31 Sudoeste 0 -- -- 72
2019-04-01 16:00:00 11.7 12 Sudoeste 25 Sur 0.4 -- -- 75
2019-04-01 15:00:00 9.4 12 Sudoeste 25 Sudoeste 0.4 -- -- 88
2019-04-01 14:00:00 11.9 6 Sudoeste 15 Sur 0 -- -- 72
2019-04-01 13:00:00 11.2 8 Sur 15 Sur 0 -- -- 75
2019-04-01 12:00:00 9.3 4 Sur 7 Sur 0 -- -- 82
2019-04-01 11:00:00 8.1 2 Sur 5 Sur -- -- -- 88
2019-04-01 10:00:00 6.9 0 Calma 4 Este 0 -- -- 96
2019-04-01 09:00:00 5.8 0 Calma 4 Nordeste 0.4 -- -- 98
2019-04-01 08:00:00 5.5 0 Calma -- -- 0.2 -- -- 99
2019-04-01 07:00:00 5.5 0 Calma 5 Nordeste 0.2 -- -- 99
2019-04-01 06:00:00 5.5 4 Nordeste 7 Nordeste 0.2 -- -- 98
2019-04-01 05:00:00 5.6 5 Nordeste 8 Norte 0 -- -- 98
2019-04-01 04:00:00 5.6 5 Norte 9 Norte 0.2 -- -- 98
2019-04-01 03:00:00 5.7 6 Norte 11 Nordeste 0 -- -- 97
2019-04-01 02:00:00 5.6 8 Norte 11 Nordeste 0 -- -- 97
2019-04-01 01:00:00 5.7 6 Norte 12 Norte 0.2 -- -- 97
2019-04-01 00:00:00 5.5 5 Norte 10 Noroeste 0.6 -- -- 97
2019-03-31 23:00:00 5.6 7 Noroeste 12 Oeste 0.4 -- -- 93
2019-03-31 22:00:00 5.9 7 Noroeste 9 Noroeste 0.4 -- -- 94
2019-03-31 21:00:00 5.9 5 Norte 8 Norte 1 -- -- 96
2019-03-31 20:00:00 6.3 3 Norte 6 Norte 0.6 -- -- 92
2019-03-31 19:00:00 6.7 5 Norte 11 Norte 0.4 -- -- 89
2019-03-31 18:00:00 6.4 4 Norte 11 Noroeste 1.8 -- -- 89
2019-03-31 17:00:00 6.1 5 Noroeste 8 Noroeste 3.8 -- -- 96
2019-03-31 16:00:00 5.9 5 Este 13 Sudoeste 3.2 -- -- 95
2019-03-31 15:00:00 5.3 8 Sudoeste 13 Sudoeste 4 -- -- 94
2019-03-31 14:00:00 5.4 0 Calma 12 Sur 1.8 -- -- 92
2019-03-31 13:00:00 5.1 9 Sur 16 Sur 1.2 -- -- 90
2019-03-31 12:00:00 5.2 6 Sur 16 Sudoeste 0.4 -- -- 88
2019-03-31 11:00:00 5 8 Sur 15 Sur 0.2 -- -- 86
2019-03-31 10:00:00 4.5 12 Sur 17 Sur 0 -- -- 86
2019-03-31 09:00:00 3.8 0 Calma 9 Sur 0 -- -- 83
2019-03-31 08:00:00 3.6 7 Sudoeste 12 Sudoeste 0 -- -- 80
2019-03-31 07:00:00 3.4 7 Sur 12 Sur 0 -- -- 82
2019-03-31 06:00:00 3 0 Calma -- -- 0 -- -- 83
2019-03-31 05:00:00 2.4 0 Calma -- -- 0 -- -- 87
2019-03-31 03:00:00 2.6 0 Calma 9 Sudoeste 0 -- -- 85
2019-03-31 01:00:00 3.2 6 Sudoeste 9 Sudoeste 0 -- -- 87
2019-03-31 00:00:00 3.9 4 Sur 13 Sudeste 0 -- -- 85
2019-03-30 23:00:00 5.2 6 Sudeste 24 Sur 0 -- -- 81
2019-03-30 22:00:00 6.9 16 Sur 31 Sur 0 -- -- 76
2019-03-30 21:00:00 8.3 18 Sur 33 Sur 0 -- -- 69
2019-03-30 20:00:00 10.2 13 Sudeste 30 Sur 0 -- -- 61
2019-03-30 19:00:00 12.6 21 Sur 31 Sur 0 -- -- 48
2019-03-30 18:00:00 14.6 4 Sudeste 16 Sudeste 0 -- -- 31
2019-03-30 17:00:00 15.1 3 Este 12 Este 0 -- -- 30
2019-03-30 16:00:00 15.5 9 Sur 25 Sudeste 0 -- -- 28
2019-03-30 15:00:00 16 12 Sur 22 Sur 0 -- -- 26
2019-03-30 14:00:00 15.4 10 Sur 25 Sur 0 -- -- 26
2019-03-30 13:00:00 14 11 Sur 22 Sudeste 0 -- -- 24
2019-03-30 12:00:00 12.2 9 Sur 20 Sur 0 -- -- 29
2019-03-30 11:00:00 10 8 Sur 17 Sur 0 -- -- 38
2019-03-30 10:00:00 6.9 9 Sur 17 Sur 0 -- -- 61
2019-03-30 09:00:00 2.3 10 Sur 15 Sur 0 -- -- 84
2019-03-30 08:00:00 -0.5 8 Sur 11 Sur 0 -- -- 84
2019-03-30 07:00:00 -3.1 0 Calma -- -- 0 -- -- 89
2019-03-30 06:00:00 -2.3 0 Calma -- -- 0 -- -- 94
2019-03-30 05:00:00 -1.9 0 Calma -- -- 0 -- -- 91
2019-03-30 04:00:00 -0.8 0 Calma 7 Sur 0 -- -- 89
2019-03-30 03:00:00 -0.1 4 Sur 8 Sur 0 -- -- 85
2019-03-30 02:00:00 0.2 0 Calma 9 Sur 0 -- -- 85
2019-03-30 01:00:00 0.7 0 Calma 10 Sudeste 0 -- -- 80
2019-03-30 00:00:00 2.8 7 Sur 15 Sur 0 -- -- 71
2019-03-29 23:00:00 4.2 11 Sur 20 Sur 0 -- -- 65
2019-03-29 22:00:00 5.3 10 Sur 20 Sur 0 -- -- 65
2019-03-29 21:00:00 7.1 16 Sur 34 Sur 0 -- -- 55
2019-03-29 20:00:00 8.7 23 Sur 37 Sur 0 -- -- 52
2019-03-29 19:00:00 10.8 23 Sur 37 Sur 0 -- -- 44
2019-03-29 18:00:00 12.9 23 Sur 41 Sudeste 0 -- -- 37
2019-03-29 17:00:00 14.3 22 Sur 36 Sur 0 -- -- 31
2019-03-29 16:00:00 14.7 19 Sur 35 Sur 0 -- -- 29
2019-03-29 15:00:00 15.3 17 Sur 32 Sur 0 -- -- 27
2019-03-29 14:00:00 14.8 14 Sur 32 Sur 0 -- -- 29
2019-03-29 13:00:00 13.9 17 Sur 31 Sur 0 -- -- 29
2019-03-29 12:00:00 12.6 17 Sur 33 Sur 0 -- -- 31
2019-03-29 11:00:00 10.8 19 Sur 31 Sur 0 -- -- 35
2019-03-29 10:00:00 8.8 16 Sur 24 Sur 0 -- -- 37
2019-03-29 09:00:00 5.5 8 Sur 13 Sur 0 -- -- 47
2019-03-29 08:00:00 0.5 5 Sur 13 Sur 0 -- -- 63
2019-03-29 07:00:00 -1.1 7 Sur 12 Sur 0 -- -- 71
2019-03-29 06:00:00 -0.7 3 Sur 10 Sudoeste 0 -- -- 68
2019-03-29 05:00:00 -0.4 4 Sudoeste 12 Sur 0 -- -- 71
2019-03-29 04:00:00 -0.3 0 Calma 9 Sur 0 -- -- 74
2019-03-29 03:00:00 0.5 5 Sur 10 Sur 0 -- -- 74
2019-03-29 02:00:00 1.1 5 Sur 19 Sur 0 -- -- 68
2019-03-29 01:00:00 3.1 10 Sur 18 Sur 0 -- -- 66
2019-03-29 00:00:00 3.7 11 Sur 16 Sur 0 -- -- 65
2019-03-28 23:00:00 4.1 8 Sur 17 Sur 0 -- -- 66
2019-03-28 22:00:00 5.8 12 Sur 20 Sur 0 -- -- 60
2019-03-28 21:00:00 7.8 13 Sur 29 Sur 0 -- -- 54
2019-03-28 20:00:00 10 14 Sur 25 Sudeste 0 -- -- 45
2019-03-28 19:00:00 14.1 8 Norte 18 Norte 0 -- -- 31
2019-03-28 18:00:00 15.6 12 Norte 19 Norte 0 -- -- 25
2019-03-28 17:00:00 16.4 11 Norte 23 Norte 0 -- -- 21
2019-03-28 16:00:00 15.8 10 Este 24 Norte 0 -- -- 23
2019-03-28 15:00:00 16.6 5 Sur 15 Nordeste 0 -- -- 23
2019-03-28 14:00:00 15.9 5 Nordeste 18 Nordeste 0 -- -- 25
2019-03-28 13:00:00 14.9 6 Nordeste 18 Nordeste 0 -- -- 26
2019-03-28 12:00:00 13.5 2 Noroeste 13 Norte 0 -- -- 30
2019-03-28 11:00:00 10.4 0 Calma 5 Este 0 -- -- 36
2019-03-28 10:00:00 7.7 3 Sudeste 10 Sur 0 -- -- 44
2019-03-28 09:00:00 3.9 0 Calma 8 Sur 0 -- -- 57
2019-03-28 08:00:00 -0.4 0 Calma -- -- 0 -- -- 62
2019-03-28 07:00:00 -3.6 0 Calma -- -- 0 -- -- 77
2019-03-28 06:00:00 -4 0 Calma -- -- 0 -- -- 76
2019-03-28 05:00:00 -2.3 0 Calma -- -- 0 -- -- 69
2019-03-28 04:00:00 -1.7 0 Calma 9 Noroeste 0 -- -- 65
2019-03-28 03:00:00 -0.5 0 Calma -- -- 0 -- -- 57
2019-03-28 02:00:00 -0.1 0 Calma -- -- 0 -- -- 60
2019-03-28 01:00:00 0.4 0 Calma -- -- 0 -- -- 51
2019-03-28 00:00:00 2 0 Calma 9 Sudoeste 0 -- -- 47
2019-03-27 23:00:00 2.9 0 Calma -- -- 0 -- -- 48
2019-03-27 22:00:00 5.8 0 Calma 14 Sudoeste 0 -- -- 43
2019-03-27 21:00:00 6 0 Calma 13 Norte 0 -- -- 34
2019-03-27 20:00:00 9 11 Norte 17 Norte 0 -- -- 29
2019-03-27 19:00:00 12.9 11 Este 24 Nordeste 0 -- -- 22
2019-03-27 18:00:00 14.5 15 Este 27 Nordeste 0 -- -- 20
2019-03-27 17:00:00 16.3 12 Nordeste 32 Norte 0 -- -- 17
2019-03-27 16:00:00 16.7 19 Nordeste 36 Nordeste 0 -- -- 23
2019-03-27 15:00:00 15.5 12 Norte 32 Norte 0 -- -- 25
2019-03-27 14:00:00 14.6 7 Nordeste 19 Nordeste 0 -- -- 28
2019-03-27 13:00:00 13 6 Norte 15 Nordeste 0 -- -- 33
2019-03-27 12:00:00 11.1 10 Nordeste 18 Norte 0 -- -- 41
2019-03-27 11:00:00 8.3 7 Norte 21 Norte 0 -- -- 50
2019-03-27 10:00:00 5 4 Norte 8 Noroeste 0 -- -- 75
2019-03-27 09:00:00 1.3 0 Calma -- -- 0 -- -- 97
2019-03-27 08:00:00 0.5 0 Calma 8 Oeste 0 -- -- 98
2019-03-27 07:00:00 -0.6 0 Calma 6 Noroeste 0 -- -- 93
2019-03-27 06:00:00 -2.1 3 Noroeste 11 Oeste 0 -- -- 87
2019-03-27 05:00:00 -1.8 0 Calma -- -- 0 -- -- 89
2019-03-27 04:00:00 -1.9 0 Calma -- -- 0 -- -- 88
2019-03-27 03:00:00 -1.1 0 Calma -- -- 0 -- -- 87
2019-03-27 02:00:00 0 0 Calma -- -- 0 -- -- 85
2019-03-27 01:00:00 0.7 0 Calma 5 Sudoeste 0 -- -- 82
2019-03-27 00:00:00 3.5 6 Sudoeste 18 Sudoeste 0 -- -- 74
2019-03-26 23:00:00 4.4 9 Sudoeste 17 Sudoeste 0 -- -- 67
2019-03-26 22:00:00 4.7 6 Oeste 12 Norte 0 -- -- 33
2019-03-26 21:00:00 5.6 0 Calma 13 Norte 0 -- -- 32
2019-03-26 20:00:00 8.1 5 Nordeste 17 Nordeste 0 -- -- 29
2019-03-26 19:00:00 12.5 12 Nordeste 26 Este 0 -- -- 20
2019-03-26 18:00:00 14.7 17 Este 33 Este 0 -- -- 15
2019-03-26 17:00:00 15.7 18 Este 33 Este 0 -- -- 13
2019-03-26 16:00:00 16.6 18 Este 33 Este 0 -- -- 14
2019-03-26 15:00:00 16.8 16 Este 36 Norte 0 -- -- 24
2019-03-26 14:00:00 15.2 13 Norte 27 Nordeste 0 -- -- 30
2019-03-26 13:00:00 13.8 10 Norte 23 Norte 0 -- -- 38
2019-03-26 12:00:00 10.5 8 Norte 19 Noroeste 0 -- -- 46
2019-03-26 11:00:00 8.5 7 Norte 19 Norte 0 -- -- 55
2019-03-26 10:00:00 6.3 12 Norte 18 Norte 0 -- -- 60
2019-03-26 09:00:00 3.8 0 Calma -- -- 0 -- -- 69
2019-03-26 08:00:00 -0.5 0 Calma -- -- 0 -- -- 82
2019-03-26 07:00:00 -3.1 0 Calma -- -- 0 -- -- 90
2019-03-26 06:00:00 -3.1 0 Calma -- -- 0 -- -- 88
2019-03-26 05:00:00 -2.3 0 Calma -- -- 0 -- -- 87
2019-03-26 04:00:00 -1.9 0 Calma 9 Norte 0 -- -- 87
2019-03-26 03:00:00 0.5 7 Norte 14 Noroeste 0 -- -- 79
2019-03-26 02:00:00 0.9 12 Noroeste 15 Noroeste 0 -- -- 77
2019-03-26 01:00:00 2.3 13 Norte 19 Norte 0 -- -- 72
2019-03-26 00:00:00 3.4 13 Norte 17 Norte 0 -- -- 66
2019-03-25 23:00:00 4.1 12 Norte 27 Norte 0 -- -- 64
2019-03-25 22:00:00 5.6 21 Norte 31 Norte 0 -- -- 58
2019-03-25 21:00:00 7 24 Norte 33 Norte 0 -- -- 51
2019-03-25 20:00:00 8.8 23 Norte 32 Norte 0 -- -- 46
2019-03-25 19:00:00 12.1 16 Norte 25 Norte 0 -- -- 39
2019-03-25 18:00:00 14.9 14 Nordeste 28 Norte 0 -- -- 35
2019-03-25 17:00:00 16.4 17 Nordeste 28 Norte 0 -- -- 33
2019-03-25 16:00:00 17.1 14 Norte 28 Norte 0 -- -- 29
2019-03-25 15:00:00 16.9 13 Norte 29 Norte 0 -- -- 29
2019-03-25 14:00:00 16 16 Norte 27 Nordeste 0 -- -- 33
2019-03-25 13:00:00 15.1 15 Norte 31 Norte 0 -- -- 34
2019-03-25 12:00:00 13.4 18 Norte 28 Nordeste 0 -- -- 38
2019-03-25 11:00:00 12 17 Norte 24 Norte 0 -- -- 42
2019-03-25 10:00:00 10.1 10 Norte 15 Norte 0 -- -- 49
2019-03-25 09:00:00 6 0 Calma -- -- 0 -- -- 56
2019-03-25 08:00:00 0.7 0 Calma -- -- 0 -- -- 72
2019-03-25 07:00:00 -2 0 Calma -- -- 0 -- -- 80
2019-03-25 06:00:00 -1.2 0 Calma -- -- 0 -- -- 77
2019-03-25 05:00:00 -1.2 0 Calma -- -- 0 -- -- 76
2019-03-25 04:00:00 0 0 Calma -- -- 0 -- -- 72
2019-03-25 03:00:00 0.8 0 Calma -- -- 0 -- -- 66
2019-03-25 02:00:00 2 0 Calma -- -- 0 -- -- 61
2019-03-25 01:00:00 3.2 0 Calma 8 Noroeste 0 -- -- 58
2019-03-25 00:00:00 3.6 3 Norte 13 Norte 0 -- -- 58